LDPL Informações do Aeroporto

Informações da Pista
Pista 09 Comprimento 9678 ft Largura 148 ft
Elevação 169 ft Limite 0 ft Heading 88
Pista 27 Comprimento 9678 ft Largura 148 ft
Elevação 274 ft Limite 0 ft Heading 268
Frequências do Aeroporto
Tipo APP Nome APP Frequência 118.4 MHZ
Tipo TWR Nome TWR Frequência 120 MHZ
Navaids do Aeroporto
Tipo NDB Nome Cres Frequência 433 KHZ
Tipo NDB Nome Kavran Frequência 265 KHZ
Tipo NDB Nome Pula Frequência 352 KHZ
Tipo VOR-DME Nome Pula Frequência 111250 KHZ
Informações meteorológicas do aeroporto e NOTAM
ADDS - METARS form results

(2035 UTC 16 January 2019)
Data provider http://aviationweather.gov/metar/data/
 
METAR text: LDPL 162030Z VRB02KT 9999 FEW055 02/01 Q1019 NOSIG
Conditions at: LDPL (PULA , HR) observed 2030 UTC 16 January 2019
Temperature: 2.0°C (36°F)
Dewpoint: 1.0°C (34°F) [RH = 93%]
Pressure (altimeter): 30.09 inches Hg (1019.0 mb)
Winds: variable direction winds at 2 MPH (2 knots; 1.0 m/s)
Visibility: 6 or more miles (10+ km)
Ceiling: at least 12,000 feet AGL
Clouds: few clouds at 5500 feet AGL
Weather: no significant weather observed at this time

METAR text: LDPL 162000Z 13003KT 050V170 9999 FEW055 02/01 Q1019 NOSIG
Conditions at: LDPL (PULA , HR) observed 2000 UTC 16 January 2019
Temperature: 2.0°C (36°F)
Dewpoint: 1.0°C (34°F) [RH = 93%]
Pressure (altimeter): 30.09 inches Hg (1019.0 mb)
Winds: from the SE (130 degrees) at 3 MPH (3 knots; 1.5 m/s)
Visibility: 6 or more miles (10+ km)
Ceiling: at least 12,000 feet AGL
Clouds: few clouds at 5500 feet AGL
Weather: no significant weather observed at this time

Forecast for: LDPL (PULA , HR)
Text: TAF LDPL 161725Z 1618/1718 VRB02KT CAVOK TX12/1713Z TNM01/1620Z
Forecast period: 1800 to 2300 UTC 16 January 2019
Forecast type: FROM: standard forecast or significant change
Winds: variable direction winds at 2 MPH (2 knots; 1.0 m/s)
Visibility: 6 or more miles 10+ km)
Ceiling: unknown
Clouds: missing
Weather: no significant weather forecast for this period
Text: BECMG 1623/1701 24015KT
Forecast period: 2300 UTC 16 January 2019 to 1800 UTC 17 January 2019
Forecast type: BECOMING: Conditions expected to become as follows by 0100 UTC 17 January 2019
Winds: from the WSW (240 degrees) at 17 MPH (15 knots; 7.7 m/s)
Visibility: 6 or more miles 10+ km)
Ceiling: unknown
Clouds: missing
Weather: no significant weather forecast for this period